sensor_id;sensor_type;location;lat;lon;timestamp;temperature;humidity
35970;DHT22;22448;51.298;6.430;2022-08-01T00:00:08;19.30;99.90
35970;DHT22;22448;51.298;6.430;2022-08-01T00:02:36;19.20;99.90
35970;DHT22;22448;51.298;6.430;2022-08-01T00:05:06;19.30;99.90
35970;DHT22;22448;51.298;6.430;2022-08-01T00:07:36;19.30;99.90
35970;DHT22;22448;51.298;6.430;2022-08-01T00:10:10;19.30;99.90
35970;DHT22;22448;51.298;6.430;2022-08-01T00:12:38;19.30;99.90
35970;DHT22;22448;51.298;6.430;2022-08-01T00:15:07;19.30;99.90
35970;DHT22;22448;51.298;6.430;2022-08-01T00:17:34;19.20;99.90
35970;DHT22;22448;51.298;6.430;2022-08-01T00:20:03;19.20;99.90
35970;DHT22;22448;51.298;6.430;2022-08-01T00:22:31;19.20;99.90
35970;DHT22;22448;51.298;6.430;2022-08-01T00:24:58;19.20;99.90
35970;DHT22;22448;51.298;6.430;2022-08-01T00:27:25;19.20;99.90
35970;DHT22;22448;51.298;6.430;2022-08-01T00:29:52;19.20;99.90
35970;DHT22;22448;51.298;6.430;2022-08-01T00:32:40;19.20;99.90
35970;DHT22;22448;51.298;6.430;2022-08-01T00:35:08;19.10;99.90
35970;DHT22;22448;51.298;6.430;2022-08-01T00:37:35;19.20;99.90
35970;DHT22;22448;51.298;6.430;2022-08-01T00:40:02;19.10;99.90
35970;DHT22;22448;51.298;6.430;2022-08-01T00:42:29;19.20;99.90
35970;DHT22;22448;51.298;6.430;2022-08-01T00:44:57;19.10;99.90
35970;DHT22;22448;51.298;6.430;2022-08-01T00:47:24;19.10;99.90
35970;DHT22;22448;51.298;6.430;2022-08-01T00:49:51;19.10;99.90
35970;DHT22;22448;51.298;6.430;2022-08-01T00:52:18;19.10;99.90
35970;DHT22;22448;51.298;6.430;2022-08-01T00:54:45;19.10;99.90
35970;DHT22;22448;51.298;6.430;2022-08-01T00:57:12;19.10;99.90
35970;DHT22;22448;51.298;6.430;2022-08-01T00:59:41;19.10;99.90
35970;DHT22;22448;51.298;6.430;2022-08-01T01:02:08;19.10;99.90
35970;DHT22;22448;51.298;6.430;2022-08-01T01:04:42;19.10;99.90
35970;DHT22;22448;51.298;6.430;2022-08-01T01:08:02;19.10;99.90
35970;DHT22;22448;51.298;6.430;2022-08-01T01:10:32;19.10;99.90
35970;DHT22;22448;51.298;6.430;2022-08-01T01:13:16;19.10;99.90
35970;DHT22;22448;51.298;6.430;2022-08-01T01:15:49;19.10;99.90
35970;DHT22;22448;51.298;6.430;2022-08-01T01:18:24;19.00;99.90
35970;DHT22;22448;51.298;6.430;2022-08-01T01:32:38;19.00;99.90
35970;DHT22;22448;51.298;6.430;2022-08-01T01:35:09;19.00;99.90
35970;DHT22;22448;51.298;6.430;2022-08-01T01:37:39;19.00;99.90
35970;DHT22;22448;51.298;6.430;2022-08-01T01:40:08;19.00;99.90
35970;DHT22;22448;51.298;6.430;2022-08-01T01:42:36;19.00;99.90
35970;DHT22;22448;51.298;6.430;2022-08-01T01:45:04;19.00;99.90
35970;DHT22;22448;51.298;6.430;2022-08-01T01:47:33;19.00;99.90
35970;DHT22;22448;51.298;6.430;2022-08-01T01:50:01;19.00;99.90
35970;DHT22;22448;51.298;6.430;2022-08-01T01:52:29;19.00;99.90
35970;DHT22;22448;51.298;6.430;2022-08-01T01:54:59;19.00;99.90
35970;DHT22;22448;51.298;6.430;2022-08-01T01:57:28;19.00;99.90
35970;DHT22;22448;51.298;6.430;2022-08-01T01:59:57;19.00;99.90
35970;DHT22;22448;51.298;6.430;2022-08-01T02:02:24;19.00;99.90
35970;DHT22;22448;51.298;6.430;2022-08-01T02:04:53;18.90;99.90
35970;DHT22;22448;51.298;6.430;2022-08-01T02:07:22;18.90;99.90
35970;DHT22;22448;51.298;6.430;2022-08-01T02:09:52;18.90;99.90
35970;DHT22;22448;51.298;6.430;2022-08-01T02:12:20;19.00;99.90
35970;DHT22;22448;51.298;6.430;2022-08-01T02:14:50;19.00;99.90
35970;DHT22;22448;51.298;6.430;2022-08-01T02:17:20;18.90;99.90
35970;DHT22;22448;51.298;6.430;2022-08-01T02:19:47;18.90;99.90
35970;DHT22;22448;51.298;6.430;2022-08-01T02:25:42;18.90;99.90
35970;DHT22;22448;51.298;6.430;2022-08-01T02:28:35;19.00;99.90
35970;DHT22;22448;51.298;6.430;2022-08-01T02:31:05;19.00;99.90
35970;DHT22;22448;51.298;6.430;2022-08-01T02:33:43;19.00;99.90
35970;DHT22;22448;51.298;6.430;2022-08-01T02:36:12;19.00;99.90
35970;DHT22;22448;51.298;6.430;2022-08-01T02:39:00;19.00;99.90
35970;DHT22;22448;51.298;6.430;2022-08-01T02:41:28;19.00;99.90
35970;DHT22;22448;51.298;6.430;2022-08-01T02:43:59;19.00;99.90
35970;DHT22;22448;51.298;6.430;2022-08-01T02:46:49;18.90;99.90
35970;DHT22;22448;51.298;6.430;2022-08-01T02:49:18;18.90;99.90
35970;DHT22;22448;51.298;6.430;2022-08-01T02:51:48;18.90;99.90
35970;DHT22;22448;51.298;6.430;2022-08-01T02:54:16;18.90;99.90
35970;DHT22;22448;51.298;6.430;2022-08-01T02:56:44;18.90;99.90
35970;DHT22;22448;51.298;6.430;2022-08-01T02:59:17;18.90;99.90
35970;DHT22;22448;51.298;6.430;2022-08-01T03:01:48;18.90;99.90
35970;DHT22;22448;51.298;6.430;2022-08-01T03:04:17;18.90;99.90
35970;DHT22;22448;51.298;6.430;2022-08-01T03:06:47;18.90;99.90
35970;DHT22;22448;51.298;6.430;2022-08-01T03:09:15;18.90;99.90
35970;DHT22;22448;51.298;6.430;2022-08-01T03:11:44;18.90;99.90
35970;DHT22;22448;51.298;6.430;2022-08-01T03:14:13;18.90;99.90
35970;DHT22;22448;51.298;6.430;2022-08-01T03:16:43;18.90;99.90
35970;DHT22;22448;51.298;6.430;2022-08-01T03:19:12;18.90;99.90
35970;DHT22;22448;51.298;6.430;2022-08-01T03:21:41;18.90;99.90
35970;DHT22;22448;51.298;6.430;2022-08-01T03:24:10;18.90;99.90
35970;DHT22;22448;51.298;6.430;2022-08-01T03:26:38;18.90;99.90
35970;DHT22;22448;51.298;6.430;2022-08-01T03:29:08;18.90;99.90
35970;DHT22;22448;51.298;6.430;2022-08-01T03:31:38;18.90;99.90
35970;DHT22;22448;51.298;6.430;2022-08-01T03:34:09;18.80;99.90
35970;DHT22;22448;51.298;6.430;2022-08-01T03:36:46;18.80;99.90
35970;DHT22;22448;51.298;6.430;2022-08-01T03:39:17;18.80;99.90
35970;DHT22;22448;51.298;6.430;2022-08-01T03:41:55;18.80;99.90
35970;DHT22;22448;51.298;6.430;2022-08-01T03:44:26;18.80;99.90
35970;DHT22;22448;51.298;6.430;2022-08-01T03:47:00;18.70;99.90
35970;DHT22;22448;51.298;6.430;2022-08-01T03:49:30;18.70;99.90
35970;DHT22;22448;51.298;6.430;2022-08-01T03:52:02;18.70;99.90
35970;DHT22;22448;51.298;6.430;2022-08-01T03:54:32;18.70;99.90
35970;DHT22;22448;51.298;6.430;2022-08-01T03:57:01;18.70;99.90
35970;DHT22;22448;51.298;6.430;2022-08-01T03:59:29;18.60;99.90
35970;DHT22;22448;51.298;6.430;2022-08-01T04:01:58;18.70;99.90
35970;DHT22;22448;51.298;6.430;2022-08-01T04:04:26;18.60;99.90
35970;DHT22;22448;51.298;6.430;2022-08-01T04:06:52;18.60;99.90
35970;DHT22;22448;51.298;6.430;2022-08-01T04:09:21;18.60;99.90
35970;DHT22;22448;51.298;6.430;2022-08-01T04:11:48;18.60;99.90
35970;DHT22;22448;51.298;6.430;2022-08-01T04:14:15;18.60;99.90
35970;DHT22;22448;51.298;6.430;2022-08-01T04:16:42;18.70;99.90
35970;DHT22;22448;51.298;6.430;2022-08-01T04:19:11;18.70;99.90
35970;DHT22;22448;51.298;6.430;2022-08-01T04:21:38;18.70;99.90
35970;DHT22;22448;51.298;6.430;2022-08-01T04:24:16;18.70;99.90
35970;DHT22;22448;51.298;6.430;2022-08-01T04:26:46;18.70;99.90
35970;DHT22;22448;51.298;6.430;2022-08-01T04:29:16;18.70;99.90
35970;DHT22;22448;51.298;6.430;2022-08-01T04:31:45;18.70;99.90
35970;DHT22;22448;51.298;6.430;2022-08-01T04:34:15;18.70;99.90
35970;DHT22;22448;51.298;6.430;2022-08-01T04:36:44;18.70;99.90
35970;DHT22;22448;51.298;6.430;2022-08-01T04:39:13;18.70;99.90
35970;DHT22;22448;51.298;6.430;2022-08-01T04:41:41;18.70;99.90
35970;DHT22;22448;51.298;6.430;2022-08-01T04:44:08;18.80;99.90
35970;DHT22;22448;51.298;6.430;2022-08-01T04:46:36;18.80;99.90
35970;DHT22;22448;51.298;6.430;2022-08-01T04:49:08;18.80;99.90
35970;DHT22;22448;51.298;6.430;2022-08-01T04:51:50;18.80;99.90
35970;DHT22;22448;51.298;6.430;2022-08-01T04:54:18;18.80;99.90
35970;DHT22;22448;51.298;6.430;2022-08-01T04:56:45;18.80;99.90
35970;DHT22;22448;51.298;6.430;2022-08-01T04:59:17;18.80;99.90
35970;DHT22;22448;51.298;6.430;2022-08-01T05:02:03;18.90;99.90
35970;DHT22;22448;51.298;6.430;2022-08-01T05:04:30;18.90;99.90
35970;DHT22;22448;51.298;6.430;2022-08-01T05:06:57;18.90;99.90
35970;DHT22;22448;51.298;6.430;2022-08-01T05:09:24;18.90;99.90
35970;DHT22;22448;51.298;6.430;2022-08-01T05:11:58;18.90;99.90
35970;DHT22;22448;51.298;6.430;2022-08-01T05:14:25;19.00;99.90
35970;DHT22;22448;51.298;6.430;2022-08-01T05:16:52;19.00;99.90
35970;DHT22;22448;51.298;6.430;2022-08-01T05:19:19;19.10;99.90
35970;DHT22;22448;51.298;6.430;2022-08-01T05:21:47;19.10;99.90
35970;DHT22;22448;51.298;6.430;2022-08-01T05:24:14;19.20;99.90
35970;DHT22;22448;51.298;6.430;2022-08-01T05:26:42;19.20;99.90
35970;DHT22;22448;51.298;6.430;2022-08-01T05:29:10;19.30;99.90
35970;DHT22;22448;51.298;6.430;2022-08-01T05:31:37;19.30;99.90
35970;DHT22;22448;51.298;6.430;2022-08-01T05:34:04;19.30;99.90
35970;DHT22;22448;51.298;6.430;2022-08-01T05:36:31;19.30;99.90
35970;DHT22;22448;51.298;6.430;2022-08-01T05:38:58;19.30;99.90
35970;DHT22;22448;51.298;6.430;2022-08-01T05:41:25;19.30;99.90
35970;DHT22;22448;51.298;6.430;2022-08-01T05:43:53;19.30;99.90
35970;DHT22;22448;51.298;6.430;2022-08-01T05:46:20;19.30;99.90
35970;DHT22;22448;51.298;6.430;2022-08-01T05:48:49;19.40;99.90
35970;DHT22;22448;51.298;6.430;2022-08-01T05:51:16;19.30;99.90
35970;DHT22;22448;51.298;6.430;2022-08-01T05:53:43;19.30;99.90
35970;DHT22;22448;51.298;6.430;2022-08-01T05:56:10;19.40;99.90
35970;DHT22;22448;51.298;6.430;2022-08-01T05:58:37;19.40;99.90
35970;DHT22;22448;51.298;6.430;2022-08-01T06:01:04;19.40;99.90
35970;DHT22;22448;51.298;6.430;2022-08-01T06:03:31;19.40;99.90
35970;DHT22;22448;51.298;6.430;2022-08-01T06:06:00;19.40;99.90
35970;DHT22;22448;51.298;6.430;2022-08-01T06:08:27;19.40;99.90
35970;DHT22;22448;51.298;6.430;2022-08-01T06:10:55;19.40;99.90
35970;DHT22;22448;51.298;6.430;2022-08-01T06:13:22;19.40;99.90
35970;DHT22;22448;51.298;6.430;2022-08-01T06:15:49;19.30;99.90
35970;DHT22;22448;51.298;6.430;2022-08-01T06:18:17;19.30;99.90
35970;DHT22;22448;51.298;6.430;2022-08-01T06:20:44;19.40;99.90
35970;DHT22;22448;51.298;6.430;2022-08-01T06:23:11;19.50;99.90
35970;DHT22;22448;51.298;6.430;2022-08-01T06:25:58;19.40;99.90
35970;DHT22;22448;51.298;6.430;2022-08-01T06:28:25;19.50;99.90
35970;DHT22;22448;51.298;6.430;2022-08-01T06:30:52;19.60;99.90
35970;DHT22;22448;51.298;6.430;2022-08-01T06:33:20;19.70;99.90
35970;DHT22;22448;51.298;6.430;2022-08-01T06:35:47;19.90;99.90
35970;DHT22;22448;51.298;6.430;2022-08-01T06:38:14;20.00;99.90
35970;DHT22;22448;51.298;6.430;2022-08-01T06:40:41;20.00;99.90
35970;DHT22;22448;51.298;6.430;2022-08-01T06:43:08;20.10;99.90
35970;DHT22;22448;51.298;6.430;2022-08-01T06:45:40;20.30;99.90
35970;DHT22;22448;51.298;6.430;2022-08-01T06:48:07;20.50;99.90
35970;DHT22;22448;51.298;6.430;2022-08-01T06:50:35;20.90;99.90
35970;DHT22;22448;51.298;6.430;2022-08-01T06:53:03;21.10;99.90
35970;DHT22;22448;51.298;6.430;2022-08-01T06:55:30;21.20;99.90
35970;DHT22;22448;51.298;6.430;2022-08-01T06:57:57;21.40;99.90
35970;DHT22;22448;51.298;6.430;2022-08-01T07:00:25;21.60;99.90
35970;DHT22;22448;51.298;6.430;2022-08-01T07:02:57;21.80;99.90
35970;DHT22;22448;51.298;6.430;2022-08-01T07:05:25;22.30;99.90
35970;DHT22;22448;51.298;6.430;2022-08-01T07:07:53;22.30;99.90
35970;DHT22;22448;51.298;6.430;2022-08-01T07:10:20;22.30;99.90
35970;DHT22;22448;51.298;6.430;2022-08-01T07:12:47;22.20;99.90
35970;DHT22;22448;51.298;6.430;2022-08-01T07:15:14;22.00;99.90
35970;DHT22;22448;51.298;6.430;2022-08-01T07:17:42;21.90;99.90
35970;DHT22;22448;51.298;6.430;2022-08-01T07:20:11;21.70;99.90
35970;DHT22;22448;51.298;6.430;2022-08-01T07:22:42;21.70;99.90
35970;DHT22;22448;51.298;6.430;2022-08-01T07:25:09;21.80;99.90
35970;DHT22;22448;51.298;6.430;2022-08-01T07:27:37;22.20;99.90
35970;DHT22;22448;51.298;6.430;2022-08-01T07:30:05;22.50;99.90
35970;DHT22;22448;51.298;6.430;2022-08-01T07:32:32;22.50;99.90
35970;DHT22;22448;51.298;6.430;2022-08-01T07:35:01;22.50;99.90
35970;DHT22;22448;51.298;6.430;2022-08-01T07:37:28;22.50;99.90
35970;DHT22;22448;51.298;6.430;2022-08-01T07:40:15;22.50;99.90
35970;DHT22;22448;51.298;6.430;2022-08-01T07:42:42;22.30;99.90
35970;DHT22;22448;51.298;6.430;2022-08-01T07:45:10;22.40;99.90
35970;DHT22;22448;51.298;6.430;2022-08-01T07:47:38;22.50;99.90
35970;DHT22;22448;51.298;6.430;2022-08-01T07:50:05;22.70;99.90
35970;DHT22;22448;51.298;6.430;2022-08-01T07:52:33;22.80;99.90
35970;DHT22;22448;51.298;6.430;2022-08-01T07:55:00;23.40;99.90
35970;DHT22;22448;51.298;6.430;2022-08-01T07:57:27;23.40;99.90
35970;DHT22;22448;51.298;6.430;2022-08-01T07:59:54;24.10;99.90
35970;DHT22;22448;51.298;6.430;2022-08-01T08:02:21;24.20;99.90
35970;DHT22;22448;51.298;6.430;2022-08-01T08:04:48;24.10;99.90
35970;DHT22;22448;51.298;6.430;2022-08-01T08:07:16;24.10;99.90
35970;DHT22;22448;51.298;6.430;2022-08-01T08:09:43;24.00;99.90
35970;DHT22;22448;51.298;6.430;2022-08-01T08:12:16;23.90;99.90
35970;DHT22;22448;51.298;6.430;2022-08-01T08:14:44;24.20;99.90
35970;DHT22;22448;51.298;6.430;2022-08-01T08:17:11;24.60;99.90
35970;DHT22;22448;51.298;6.430;2022-08-01T08:19:37;25.70;99.90
35970;DHT22;22448;51.298;6.430;2022-08-01T08:22:06;25.60;99.90
35970;DHT22;22448;51.298;6.430;2022-08-01T08:24:35;25.60;99.90
35970;DHT22;22448;51.298;6.430;2022-08-01T08:27:11;25.40;99.90
35970;DHT22;22448;51.298;6.430;2022-08-01T08:29:38;26.20;99.90
35970;DHT22;22448;51.298;6.430;2022-08-01T08:32:06;27.00;99.90
35970;DHT22;22448;51.298;6.430;2022-08-01T08:34:34;27.60;99.90
35970;DHT22;22448;51.298;6.430;2022-08-01T08:37:01;27.90;99.90
35970;DHT22;22448;51.298;6.430;2022-08-01T08:39:28;28.00;99.90
35970;DHT22;22448;51.298;6.430;2022-08-01T08:42:08;27.40;99.90
35970;DHT22;22448;51.298;6.430;2022-08-01T08:44:35;26.70;99.90
35970;DHT22;22448;51.298;6.430;2022-08-01T08:47:03;26.30;99.90
35970;DHT22;22448;51.298;6.430;2022-08-01T08:49:34;26.40;99.90
35970;DHT22;22448;51.298;6.430;2022-08-01T08:52:03;25.70;99.90
35970;DHT22;22448;51.298;6.430;2022-08-01T08:54:36;25.20;99.90
35970;DHT22;22448;51.298;6.430;2022-08-01T08:57:04;24.70;99.90
35970;DHT22;22448;51.298;6.430;2022-08-01T08:59:32;24.70;99.90
35970;DHT22;22448;51.298;6.430;2022-08-01T09:01:59;24.60;99.90
35970;DHT22;22448;51.298;6.430;2022-08-01T09:04:26;24.60;99.90
35970;DHT22;22448;51.298;6.430;2022-08-01T09:06:54;24.50;99.90
35970;DHT22;22448;51.298;6.430;2022-08-01T09:09:22;24.40;99.90
35970;DHT22;22448;51.298;6.430;2022-08-01T09:11:50;24.20;99.90
35970;DHT22;22448;51.298;6.430;2022-08-01T09:14:32;24.10;99.90
35970;DHT22;22448;51.298;6.430;2022-08-01T09:17:06;24.00;99.90
35970;DHT22;22448;51.298;6.430;2022-08-01T09:19:37;24.30;99.90
35970;DHT22;22448;51.298;6.430;2022-08-01T09:22:15;24.80;99.90
35970;DHT22;22448;51.298;6.430;2022-08-01T09:24:58;25.30;99.90
35970;DHT22;22448;51.298;6.430;2022-08-01T09:27:26;25.40;99.90
35970;DHT22;22448;51.298;6.430;2022-08-01T09:29:53;25.70;99.90
35970;DHT22;22448;51.298;6.430;2022-08-01T09:32:31;25.80;99.90
35970;DHT22;22448;51.298;6.430;2022-08-01T09:38:12;25.00;99.90
35970;DHT22;22448;51.298;6.430;2022-08-01T09:40:51;24.70;99.90
35970;DHT22;22448;51.298;6.430;2022-08-01T09:43:21;24.60;99.90
35970;DHT22;22448;51.298;6.430;2022-08-01T09:45:49;24.80;99.90
35970;DHT22;22448;51.298;6.430;2022-08-01T09:48:20;25.40;99.90
35970;DHT22;22448;51.298;6.430;2022-08-01T09:50:52;25.90;99.90
35970;DHT22;22448;51.298;6.430;2022-08-01T09:53:21;26.40;99.90
35970;DHT22;22448;51.298;6.430;2022-08-01T09:56:09;26.80;99.90
35970;DHT22;22448;51.298;6.430;2022-08-01T09:58:59;27.10;99.90
35970;DHT22;22448;51.298;6.430;2022-08-01T10:01:41;27.50;99.90
35970;DHT22;22448;51.298;6.430;2022-08-01T10:04:11;27.80;99.90
35970;DHT22;22448;51.298;6.430;2022-08-01T10:06:39;27.60;99.90
35970;DHT22;22448;51.298;6.430;2022-08-01T10:09:13;26.80;99.90
35970;DHT22;22448;51.298;6.430;2022-08-01T10:11:42;26.30;99.90
35970;DHT22;22448;51.298;6.430;2022-08-01T10:14:11;25.70;99.90
35970;DHT22;22448;51.298;6.430;2022-08-01T10:16:45;25.50;99.90
35970;DHT22;22448;51.298;6.430;2022-08-01T10:19:23;25.60;99.90
35970;DHT22;22448;51.298;6.430;2022-08-01T10:21:52;26.00;99.90
35970;DHT22;22448;51.298;6.430;2022-08-01T10:24:27;26.10;99.90
35970;DHT22;22448;51.298;6.430;2022-08-01T10:27:03;26.30;99.90
35970;DHT22;22448;51.298;6.430;2022-08-01T10:29:42;26.50;99.90
35970;DHT22;22448;51.298;6.430;2022-08-01T10:32:30;26.80;99.90
35970;DHT22;22448;51.298;6.430;2022-08-01T10:34:58;27.00;99.90
35970;DHT22;22448;51.298;6.430;2022-08-01T10:37:36;27.20;99.90
35970;DHT22;22448;51.298;6.430;2022-08-01T10:40:19;27.00;99.90
35970;DHT22;22448;51.298;6.430;2022-08-01T10:43:02;26.80;99.90
35970;DHT22;22448;51.298;6.430;2022-08-01T10:45:31;26.90;99.90
35970;DHT22;22448;51.298;6.430;2022-08-01T10:48:09;27.10;99.90
35970;DHT22;22448;51.298;6.430;2022-08-01T10:50:44;27.60;99.90
35970;DHT22;22448;51.298;6.430;2022-08-01T10:53:26;27.90;99.90
35970;DHT22;22448;51.298;6.430;2022-08-01T10:56:08;27.90;99.20
35970;DHT22;22448;51.298;6.430;2022-08-01T10:58:42;27.80;99.80
35970;DHT22;22448;51.298;6.430;2022-08-01T11:01:15;27.80;99.90
35970;DHT22;22448;51.298;6.430;2022-08-01T11:03:45;27.60;99.20
35970;DHT22;22448;51.298;6.430;2022-08-01T11:09:04;27.20;99.30
35970;DHT22;22448;51.298;6.430;2022-08-01T11:11:33;26.60;99.20
35970;DHT22;22448;51.298;6.430;2022-08-01T11:14:19;26.20;99.40
35970;DHT22;22448;51.298;6.430;2022-08-01T11:16:52;26.30;99.90
35970;DHT22;22448;51.298;6.430;2022-08-01T11:19:19;26.30;99.90
35970;DHT22;22448;51.298;6.430;2022-08-01T11:27:18;26.90;99.30
35970;DHT22;22448;51.298;6.430;2022-08-01T11:32:53;27.10;99.90
35970;DHT22;22448;51.298;6.430;2022-08-01T11:38:38;27.10;98.80
35970;DHT22;22448;51.298;6.430;2022-08-01T11:44:12;27.80;99.00
35970;DHT22;22448;51.298;6.430;2022-08-01T11:46:55;28.00;97.80
35970;DHT22;22448;51.298;6.430;2022-08-01T11:52:07;28.60;99.40
35970;DHT22;22448;51.298;6.430;2022-08-01T11:54:40;28.30;99.90
35970;DHT22;22448;51.298;6.430;2022-08-01T11:59:43;27.20;99.90
35970;DHT22;22448;51.298;6.430;2022-08-01T12:02:37;26.70;99.90
35970;DHT22;22448;51.298;6.430;2022-08-01T12:05:06;26.20;99.90
35970;DHT22;22448;51.298;6.430;2022-08-01T12:07:39;25.80;99.90
35970;DHT22;22448;51.298;6.430;2022-08-01T12:10:13;25.50;99.90
35970;DHT22;22448;51.298;6.430;2022-08-01T12:15:11;25.30;99.90
35970;DHT22;22448;51.298;6.430;2022-08-01T12:17:58;25.20;99.90
35970;DHT22;22448;51.298;6.430;2022-08-01T12:20:31;25.30;99.90
35970;DHT22;22448;51.298;6.430;2022-08-01T12:23:01;25.50;99.90
35970;DHT22;22448;51.298;6.430;2022-08-01T12:25:28;25.90;99.90
35970;DHT22;22448;51.298;6.430;2022-08-01T12:28:00;26.10;99.90
35970;DHT22;22448;51.298;6.430;2022-08-01T12:30:28;26.30;99.90
35970;DHT22;22448;51.298;6.430;2022-08-01T12:32:57;26.40;99.90
35970;DHT22;22448;51.298;6.430;2022-08-01T12:35:26;26.60;99.90
35970;DHT22;22448;51.298;6.430;2022-08-01T12:38:14;26.90;99.90
35970;DHT22;22448;51.298;6.430;2022-08-01T12:40:44;27.10;99.90
35970;DHT22;22448;51.298;6.430;2022-08-01T12:43:16;27.30;99.70
35970;DHT22;22448;51.298;6.430;2022-08-01T12:45:56;27.40;99.60
35970;DHT22;22448;51.298;6.430;2022-08-01T12:48:24;27.50;98.70
35970;DHT22;22448;51.298;6.430;2022-08-01T12:50:52;27.70;98.10
35970;DHT22;22448;51.298;6.430;2022-08-01T12:53:20;28.00;99.50
35970;DHT22;22448;51.298;6.430;2022-08-01T12:55:49;28.10;98.90
35970;DHT22;22448;51.298;6.430;2022-08-01T12:58:32;28.00;98.90
35970;DHT22;22448;51.298;6.430;2022-08-01T13:01:06;27.80;99.20
35970;DHT22;22448;51.298;6.430;2022-08-01T13:03:33;27.70;99.60
35970;DHT22;22448;51.298;6.430;2022-08-01T13:06:01;27.50;99.00
35970;DHT22;22448;51.298;6.430;2022-08-01T13:08:33;27.30;98.60
35970;DHT22;22448;51.298;6.430;2022-08-01T13:11:05;26.90;98.80
35970;DHT22;22448;51.298;6.430;2022-08-01T13:16:08;26.20;99.90
35970;DHT22;22448;51.298;6.430;2022-08-01T13:18:56;25.70;99.90
35970;DHT22;22448;51.298;6.430;2022-08-01T13:21:25;25.40;99.90
35970;DHT22;22448;51.298;6.430;2022-08-01T13:24:12;25.20;99.90
35970;DHT22;22448;51.298;6.430;2022-08-01T13:26:45;25.00;99.90
35970;DHT22;22448;51.298;6.430;2022-08-01T13:29:16;24.80;99.90
35970;DHT22;22448;51.298;6.430;2022-08-01T13:31:44;24.80;99.90
35970;DHT22;22448;51.298;6.430;2022-08-01T13:34:11;24.80;99.90
35970;DHT22;22448;51.298;6.430;2022-08-01T13:36:39;24.70;99.90
35970;DHT22;22448;51.298;6.430;2022-08-01T13:39:15;24.60;99.90
35970;DHT22;22448;51.298;6.430;2022-08-01T13:42:01;24.70;99.90
35970;DHT22;22448;51.298;6.430;2022-08-01T13:44:28;24.80;99.90
35970;DHT22;22448;51.298;6.430;2022-08-01T13:46:55;24.90;99.90
35970;DHT22;22448;51.298;6.430;2022-08-01T13:49:22;24.90;99.90
35970;DHT22;22448;51.298;6.430;2022-08-01T13:51:49;25.10;99.90
35970;DHT22;22448;51.298;6.430;2022-08-01T13:54:17;25.20;99.90
35970;DHT22;22448;51.298;6.430;2022-08-01T13:56:44;25.20;99.90
35970;DHT22;22448;51.298;6.430;2022-08-01T13:59:12;25.50;99.90
35970;DHT22;22448;51.298;6.430;2022-08-01T14:01:39;25.40;99.90
35970;DHT22;22448;51.298;6.430;2022-08-01T14:04:06;25.40;99.90
35970;DHT22;22448;51.298;6.430;2022-08-01T14:06:34;25.40;99.90
35970;DHT22;22448;51.298;6.430;2022-08-01T14:09:03;25.50;99.90
35970;DHT22;22448;51.298;6.430;2022-08-01T14:11:43;25.50;99.90
35970;DHT22;22448;51.298;6.430;2022-08-01T14:14:12;25.60;99.90
35970;DHT22;22448;51.298;6.430;2022-08-01T14:16:39;25.70;99.90
35970;DHT22;22448;51.298;6.430;2022-08-01T14:19:06;25.80;99.90
35970;DHT22;22448;51.298;6.430;2022-08-01T14:21:33;25.90;99.90
35970;DHT22;22448;51.298;6.430;2022-08-01T14:24:00;26.00;99.90
35970;DHT22;22448;51.298;6.430;2022-08-01T14:26:27;26.30;99.90
35970;DHT22;22448;51.298;6.430;2022-08-01T14:28:54;26.20;99.90
35970;DHT22;22448;51.298;6.430;2022-08-01T14:31:21;26.00;99.90
35970;DHT22;22448;51.298;6.430;2022-08-01T14:33:48;25.70;99.90
35970;DHT22;22448;51.298;6.430;2022-08-01T14:36:15;25.80;99.90
35970;DHT22;22448;51.298;6.430;2022-08-01T14:38:56;25.70;99.90
35970;DHT22;22448;51.298;6.430;2022-08-01T14:41:26;25.50;99.90
35970;DHT22;22448;51.298;6.430;2022-08-01T14:43:53;25.60;99.90
35970;DHT22;22448;51.298;6.430;2022-08-01T14:46:20;25.50;99.90
35970;DHT22;22448;51.298;6.430;2022-08-01T14:48:47;25.30;99.90
35970;DHT22;22448;51.298;6.430;2022-08-01T14:51:14;25.20;99.90
35970;DHT22;22448;51.298;6.430;2022-08-01T14:53:41;25.30;99.90
35970;DHT22;22448;51.298;6.430;2022-08-01T14:56:16;25.20;99.90
35970;DHT22;22448;51.298;6.430;2022-08-01T14:58:43;25.20;99.90
35970;DHT22;22448;51.298;6.430;2022-08-01T15:01:10;25.20;99.90
35970;DHT22;22448;51.298;6.430;2022-08-01T15:03:37;25.20;99.90
35970;DHT22;22448;51.298;6.430;2022-08-01T15:06:05;25.10;99.90
35970;DHT22;22448;51.298;6.430;2022-08-01T15:08:33;25.00;99.90
35970;DHT22;22448;51.298;6.430;2022-08-01T15:10:59;24.90;99.90
35970;DHT22;22448;51.298;6.430;2022-08-01T15:13:27;24.80;99.90
35970;DHT22;22448;51.298;6.430;2022-08-01T15:15:54;24.70;99.90
35970;DHT22;22448;51.298;6.430;2022-08-01T15:18:27;24.70;99.90
35970;DHT22;22448;51.298;6.430;2022-08-01T15:20:55;24.60;99.90
35970;DHT22;22448;51.298;6.430;2022-08-01T15:23:23;24.50;99.90
35970;DHT22;22448;51.298;6.430;2022-08-01T15:25:50;24.70;99.90
35970;DHT22;22448;51.298;6.430;2022-08-01T15:28:16;24.90;99.90
35970;DHT22;22448;51.298;6.430;2022-08-01T15:30:43;25.10;99.90
35970;DHT22;22448;51.298;6.430;2022-08-01T15:33:11;25.20;99.90
35970;DHT22;22448;51.298;6.430;2022-08-01T15:35:38;25.10;99.90
35970;DHT22;22448;51.298;6.430;2022-08-01T15:38:05;25.10;99.90
35970;DHT22;22448;51.298;6.430;2022-08-01T15:40:32;24.90;99.90
35970;DHT22;22448;51.298;6.430;2022-08-01T15:43:01;24.70;99.90
35970;DHT22;22448;51.298;6.430;2022-08-01T15:45:28;24.50;99.90
35970;DHT22;22448;51.298;6.430;2022-08-01T15:48:16;24.30;99.90
35970;DHT22;22448;51.298;6.430;2022-08-01T15:50:43;24.40;99.90
35970;DHT22;22448;51.298;6.430;2022-08-01T15:53:10;24.40;99.90
35970;DHT22;22448;51.298;6.430;2022-08-01T15:55:38;24.40;99.90
35970;DHT22;22448;51.298;6.430;2022-08-01T15:58:06;24.50;99.90
35970;DHT22;22448;51.298;6.430;2022-08-01T16:00:34;24.40;99.90
35970;DHT22;22448;51.298;6.430;2022-08-01T16:03:06;24.60;99.90
35970;DHT22;22448;51.298;6.430;2022-08-01T16:05:33;24.60;99.90
35970;DHT22;22448;51.298;6.430;2022-08-01T16:08:10;24.60;99.90
35970;DHT22;22448;51.298;6.430;2022-08-01T16:10:37;24.60;99.90
35970;DHT22;22448;51.298;6.430;2022-08-01T16:13:04;24.60;99.90
35970;DHT22;22448;51.298;6.430;2022-08-01T16:15:34;24.70;99.90
35970;DHT22;22448;51.298;6.430;2022-08-01T16:18:04;24.80;99.90
35970;DHT22;22448;51.298;6.430;2022-08-01T16:20:32;24.80;99.90
35970;DHT22;22448;51.298;6.430;2022-08-01T16:22:58;24.90;99.90
35970;DHT22;22448;51.298;6.430;2022-08-01T16:25:25;24.90;99.90
35970;DHT22;22448;51.298;6.430;2022-08-01T16:27:52;24.70;99.90
35970;DHT22;22448;51.298;6.430;2022-08-01T16:30:19;24.40;99.90
35970;DHT22;22448;51.298;6.430;2022-08-01T16:32:46;24.20;99.90
35970;DHT22;22448;51.298;6.430;2022-08-01T16:35:22;24.10;99.90